sensor_id;sensor_type;location;lat;lon;timestamp;pressure;altitude;pressure_sealevel;temperature;humidity
21357;BME280;10836;53.068;18.234;2023-03-03T00:00:05;101567.16;;;-2.23;100.00
21357;BME280;10836;53.068;18.234;2023-03-03T00:03:00;101564.81;;;-2.26;100.00
21357;BME280;10836;53.068;18.234;2023-03-03T00:05:31;101555.78;;;-2.33;100.00
21357;BME280;10836;53.068;18.234;2023-03-03T00:07:59;101550.28;;;-2.40;100.00
21357;BME280;10836;53.068;18.234;2023-03-03T00:10:27;101550.09;;;-2.30;100.00
21357;BME280;10836;53.068;18.234;2023-03-03T00:12:54;101549.44;;;-2.32;100.00
21357;BME280;10836;53.068;18.234;2023-03-03T00:15:23;101538.41;;;-2.29;100.00
21357;BME280;10836;53.068;18.234;2023-03-03T00:17:52;101526.38;;;-2.41;100.00
21357;BME280;10836;53.068;18.234;2023-03-03T00:20:37;101521.03;;;-2.41;100.00
21357;BME280;10836;53.068;18.234;2023-03-03T00:25:55;101513.00;;;-2.57;100.00
21357;BME280;10836;53.068;18.234;2023-03-03T00:28:30;101516.34;;;-2.55;100.00
21357;BME280;10836;53.068;18.234;2023-03-03T00:31:00;101512.19;;;-2.66;100.00
21357;BME280;10836;53.068;18.234;2023-03-03T00:33:32;101515.34;;;-2.54;100.00
21357;BME280;10836;53.068;18.234;2023-03-03T00:38:42;101504.31;;;-2.43;100.00
21357;BME280;10836;53.068;18.234;2023-03-03T00:41:23;101505.97;;;-2.42;100.00
21357;BME280;10836;53.068;18.234;2023-03-03T00:43:50;101511.00;;;-2.55;100.00
21357;BME280;10836;53.068;18.234;2023-03-03T00:46:22;101500.47;;;-2.57;100.00
21357;BME280;10836;53.068;18.234;2023-03-03T00:48:49;101498.97;;;-2.59;100.00
21357;BME280;10836;53.068;18.234;2023-03-03T00:51:31;101485.63;;;-2.67;100.00
21357;BME280;10836;53.068;18.234;2023-03-03T00:53:59;101496.16;;;-2.66;100.00
21357;BME280;10836;53.068;18.234;2023-03-03T00:56:26;101494.66;;;-2.69;100.00
21357;BME280;10836;53.068;18.234;2023-03-03T00:58:53;101485.28;;;-2.64;100.00
21357;BME280;10836;53.068;18.234;2023-03-03T01:01:21;101485.47;;;-2.74;100.00
21357;BME280;10836;53.068;18.234;2023-03-03T01:03:52;101485.47;;;-2.74;100.00
21357;BME280;10836;53.068;18.234;2023-03-03T01:06:19;101488.63;;;-2.79;100.00
21357;BME280;10836;53.068;18.234;2023-03-03T01:08:46;101489.63;;;-2.88;100.00
21357;BME280;10836;53.068;18.234;2023-03-03T01:11:20;101481.63;;;-2.63;100.00
21357;BME280;10836;53.068;18.234;2023-03-03T01:13:49;101489.59;;;-2.55;100.00
21357;BME280;10836;53.068;18.234;2023-03-03T01:16:17;101505.66;;;-2.55;100.00
21357;BME280;10836;53.068;18.234;2023-03-03T01:18:44;101500.47;;;-2.57;100.00
21357;BME280;10836;53.068;18.234;2023-03-03T01:21:12;101508.16;;;-2.54;100.00
21357;BME280;10836;53.068;18.234;2023-03-03T01:23:39;101508.84;;;-2.60;100.00
21357;BME280;10836;53.068;18.234;2023-03-03T01:26:06;101497.81;;;-2.65;100.00
21357;BME280;10836;53.068;18.234;2023-03-03T01:28:33;101496.94;;;-2.57;100.00
21357;BME280;10836;53.068;18.234;2023-03-03T01:31:02;101484.91;;;-2.45;100.00
21357;BME280;10836;53.068;18.234;2023-03-03T01:33:31;101492.28;;;-2.47;100.00
21357;BME280;10836;53.068;18.234;2023-03-03T01:35:58;101500.28;;;-2.39;100.00
21357;BME280;10836;53.068;18.234;2023-03-03T01:38:25;101492.94;;;-2.53;100.00
21357;BME280;10836;53.068;18.234;2023-03-03T01:40:54;101485.94;;;-2.54;100.00
21357;BME280;10836;53.068;18.234;2023-03-03T01:43:22;101488.97;;;-2.65;100.00
21357;BME280;10836;53.068;18.234;2023-03-03T01:48:37;101480.91;;;-2.57;100.00
21357;BME280;10836;53.068;18.234;2023-03-03T01:51:20;101479.78;;;-2.71;100.00
21357;BME280;10836;53.068;18.234;2023-03-03T01:53:56;101481.91;;;-2.58;100.00
21357;BME280;10836;53.068;18.234;2023-03-03T01:56:24;101485.75;;;-2.45;100.00
21357;BME280;10836;53.068;18.234;2023-03-03T02:01:28;101463.56;;;-2.61;100.00
21357;BME280;10836;53.068;18.234;2023-03-03T02:03:58;101465.53;;;-2.55;100.00
21357;BME280;10836;53.068;18.234;2023-03-03T02:06:29;101479.75;;;-2.55;100.00
21357;BME280;10836;53.068;18.234;2023-03-03T02:09:50;101478.56;;;-2.52;100.00
21357;BME280;10836;53.068;18.234;2023-03-03T02:12:00;101470.22;;;-2.49;100.00
21357;BME280;10836;53.068;18.234;2023-03-03T02:14:29;101468.22;;;-2.55;100.00
21357;BME280;10836;53.068;18.234;2023-03-03T02:16:56;101469.03;;;-2.55;100.00
21357;BME280;10836;53.068;18.234;2023-03-03T02:22:15;101464.03;;;-2.58;100.00
21357;BME280;10836;53.068;18.234;2023-03-03T02:24:52;101471.56;;;-2.53;100.00
21357;BME280;10836;53.068;18.234;2023-03-03T02:27:23;101466.88;;;-2.59;100.00
21357;BME280;10836;53.068;18.234;2023-03-03T02:29:50;101454.88;;;-2.63;100.00
21357;BME280;10836;53.068;18.234;2023-03-03T02:32:18;101454.66;;;-2.54;100.00
21357;BME280;10836;53.068;18.234;2023-03-03T02:34:47;101457.84;;;-2.50;100.00
21357;BME280;10836;53.068;18.234;2023-03-03T02:37:15;101450.47;;;-2.40;100.00
21357;BME280;10836;53.068;18.234;2023-03-03T02:39:43;101452.50;;;-2.42;100.00
21357;BME280;10836;53.068;18.234;2023-03-03T02:42:20;101434.13;;;-2.53;100.00
21357;BME280;10836;53.068;18.234;2023-03-03T02:44:53;101426.25;;;-2.55;100.00
21357;BME280;10836;53.068;18.234;2023-03-03T02:47:20;101426.47;;;-2.64;100.00
21357;BME280;10836;53.068;18.234;2023-03-03T02:49:47;101421.97;;;-2.64;100.00
21357;BME280;10836;53.068;18.234;2023-03-03T02:52:14;101420.41;;;-2.58;100.00
21357;BME280;10836;53.068;18.234;2023-03-03T02:54:45;101430.78;;;-2.55;100.00
21357;BME280;10836;53.068;18.234;2023-03-03T02:57:12;101437.78;;;-2.54;100.00
21357;BME280;10836;53.068;18.234;2023-03-03T02:59:39;101429.94;;;-2.56;100.00
21357;BME280;10836;53.068;18.234;2023-03-03T03:02:10;101424.09;;;-2.59;100.00
21357;BME280;10836;53.068;18.234;2023-03-03T03:04:38;101424.47;;;-2.62;100.00
21357;BME280;10836;53.068;18.234;2023-03-03T03:07:05;101423.97;;;-2.66;100.00
21357;BME280;10836;53.068;18.234;2023-03-03T03:09:34;101431.78;;;-2.56;100.00
21357;BME280;10836;53.068;18.234;2023-03-03T03:12:02;101418.75;;;-2.59;100.00
21357;BME280;10836;53.068;18.234;2023-03-03T03:14:31;101426.13;;;-2.61;100.00
21357;BME280;10836;53.068;18.234;2023-03-03T03:16:58;101413.78;;;-2.62;100.00
21357;BME280;10836;53.068;18.234;2023-03-03T03:19:27;101413.78;;;-2.79;100.00
21357;BME280;10836;53.068;18.234;2023-03-03T03:21:57;101409.09;;;-2.77;100.00
21357;BME280;10836;53.068;18.234;2023-03-03T03:24:25;101409.44;;;-2.72;100.00
21357;BME280;10836;53.068;18.234;2023-03-03T03:26:57;101411.09;;;-2.71;100.00
21357;BME280;10836;53.068;18.234;2023-03-03T03:29:26;101410.78;;;-2.67;100.00
21357;BME280;10836;53.068;18.234;2023-03-03T03:31:53;101413.44;;;-2.76;100.00
21357;BME280;10836;53.068;18.234;2023-03-03T03:34:20;101413.78;;;-2.79;100.00
21357;BME280;10836;53.068;18.234;2023-03-03T03:36:49;101400.41;;;-2.71;100.00
21357;BME280;10836;53.068;18.234;2023-03-03T03:39:17;101392.72;;;-2.74;100.00
21357;BME280;10836;53.068;18.234;2023-03-03T03:41:46;101403.09;;;-2.79;100.00
21357;BME280;10836;53.068;18.234;2023-03-03T03:44:13;101401.59;;;-2.89;100.00
21357;BME280;10836;53.068;18.234;2023-03-03T03:46:40;101389.25;;;-2.82;100.00
21357;BME280;10836;53.068;18.234;2023-03-03T03:49:09;101408.78;;;-2.82;100.00
21357;BME280;10836;53.068;18.234;2023-03-03T03:51:36;101390.06;;;-2.90;100.00
21357;BME280;10836;53.068;18.234;2023-03-03T03:54:08;101395.59;;;-2.83;100.00
21357;BME280;10836;53.068;18.234;2023-03-03T03:56:37;101387.06;;;-2.79;100.00
21357;BME280;10836;53.068;18.234;2023-03-03T03:59:07;101400.94;;;-2.83;100.00
21357;BME280;10836;53.068;18.234;2023-03-03T04:01:37;101399.75;;;-2.81;100.00
21357;BME280;10836;53.068;18.234;2023-03-03T04:04:04;101402.94;;;-2.77;100.00
21357;BME280;10836;53.068;18.234;2023-03-03T04:06:31;101397.09;;;-2.81;100.00
21357;BME280;10836;53.068;18.234;2023-03-03T04:08:59;101391.22;;;-2.76;100.00
21357;BME280;10836;53.068;18.234;2023-03-03T04:11:28;101401.59;;;-2.89;100.00
21357;BME280;10836;53.068;18.234;2023-03-03T04:13:55;101403.09;;;-2.79;100.00
21357;BME280;10836;53.068;18.234;2023-03-03T04:16:23;101411.44;;;-2.74;100.00
21357;BME280;10836;53.068;18.234;2023-03-03T04:18:50;101411.44;;;-2.65;100.00
21357;BME280;10836;53.068;18.234;2023-03-03T04:21:17;101415.13;;;-2.66;100.00
21357;BME280;10836;53.068;18.234;2023-03-03T04:23:45;101411.09;;;-2.71;100.00
21357;BME280;10836;53.068;18.234;2023-03-03T04:26:12;101407.09;;;-2.66;100.00
21357;BME280;10836;53.068;18.234;2023-03-03T04:28:41;101410.63;;;-2.74;100.00
21357;BME280;10836;53.068;18.234;2023-03-03T04:31:09;101414.06;;;-2.57;100.00
21357;BME280;10836;53.068;18.234;2023-03-03T04:33:36;101409.09;;;-2.60;100.00
21357;BME280;10836;53.068;18.234;2023-03-03T04:36:05;101408.75;;;-2.65;100.00
21357;BME280;10836;53.068;18.234;2023-03-03T04:38:32;101409.44;;;-2.72;100.00
21357;BME280;10836;53.068;18.234;2023-03-03T04:40:59;101418.78;;;-2.67;100.00
21357;BME280;10836;53.068;18.234;2023-03-03T04:43:30;101417.09;;;-2.60;100.00
21357;BME280;10836;53.068;18.234;2023-03-03T04:45:57;101421.81;;;-2.71;100.00
21357;BME280;10836;53.068;18.234;2023-03-03T04:48:24;101425.13;;;-2.60;100.00
21357;BME280;10836;53.068;18.234;2023-03-03T04:50:52;101423.13;;;-2.66;100.00
21357;BME280;10836;53.068;18.234;2023-03-03T04:53:19;101410.78;;;-2.67;100.00
21357;BME280;10836;53.068;18.234;2023-03-03T04:55:49;101405.69;;;-2.46;100.00
21357;BME280;10836;53.068;18.234;2023-03-03T04:58:18;101407.03;;;-2.42;100.00
21357;BME280;10836;53.068;18.234;2023-03-03T05:00:47;101407.69;;;-2.40;100.00
21357;BME280;10836;53.068;18.234;2023-03-03T05:03:18;101400.66;;;-2.41;100.00
21357;BME280;10836;53.068;18.234;2023-03-03T05:05:46;101403.84;;;-2.46;100.00
21357;BME280;10836;53.068;18.234;2023-03-03T05:08:13;101409.69;;;-2.42;100.00
21357;BME280;10836;53.068;18.234;2023-03-03T05:10:40;101421.59;;;-2.53;100.00
21357;BME280;10836;53.068;18.234;2023-03-03T05:13:07;101417.44;;;-2.63;100.00
21357;BME280;10836;53.068;18.234;2023-03-03T05:15:35;101413.94;;;-2.72;100.00
21357;BME280;10836;53.068;18.234;2023-03-03T05:18:02;101423.63;;;-2.71;100.00
21357;BME280;10836;53.068;18.234;2023-03-03T05:20:29;101422.47;;;-2.69;100.00
21357;BME280;10836;53.068;18.234;2023-03-03T05:22:56;101422.47;;;-2.69;100.00
21357;BME280;10836;53.068;18.234;2023-03-03T05:25:25;101410.28;;;-2.71;100.00
21357;BME280;10836;53.068;18.234;2023-03-03T05:27:52;101413.13;;;-2.73;100.00
21357;BME280;10836;53.068;18.234;2023-03-03T05:30:20;101410.09;;;-2.61;100.00
21357;BME280;10836;53.068;18.234;2023-03-03T05:32:47;101411.28;;;-2.64;100.00
21357;BME280;10836;53.068;18.234;2023-03-03T05:35:15;101400.75;;;-2.65;100.00
21357;BME280;10836;53.068;18.234;2023-03-03T05:37:42;101399.75;;;-2.64;100.00
21357;BME280;10836;53.068;18.234;2023-03-03T05:40:13;101398.56;;;-2.62;100.00
21357;BME280;10836;53.068;18.234;2023-03-03T05:42:40;101399.91;;;-2.66;100.00
21357;BME280;10836;53.068;18.234;2023-03-03T05:45:08;101383.00;;;-2.58;100.00
21357;BME280;10836;53.068;18.234;2023-03-03T05:47:35;101392.00;;;-2.59;100.00
21357;BME280;10836;53.068;18.234;2023-03-03T05:50:02;101391.41;;;-2.70;100.00
21357;BME280;10836;53.068;18.234;2023-03-03T05:52:29;101388.38;;;-2.66;100.00
21357;BME280;10836;53.068;18.234;2023-03-03T05:54:56;101376.53;;;-2.72;100.00
21357;BME280;10836;53.068;18.234;2023-03-03T05:57:23;101383.72;;;-2.81;100.00
21357;BME280;10836;53.068;18.234;2023-03-03T05:59:50;101388.06;;;-2.72;100.00
21357;BME280;10836;53.068;18.234;2023-03-03T06:02:17;101387.38;;;-2.74;100.00
21357;BME280;10836;53.068;18.234;2023-03-03T06:04:44;101390.38;;;-2.69;100.00
21357;BME280;10836;53.068;18.234;2023-03-03T06:07:11;101388.72;;;-2.61;100.00
21357;BME280;10836;53.068;18.234;2023-03-03T06:09:38;101400.69;;;-2.57;100.00
21357;BME280;10836;53.068;18.234;2023-03-03T06:12:05;101392.84;;;-2.51;100.00
21357;BME280;10836;53.068;18.234;2023-03-03T06:14:32;101408.38;;;-2.46;100.00
21357;BME280;10836;53.068;18.234;2023-03-03T06:16:59;101399.34;;;-2.45;100.00
21357;BME280;10836;53.068;18.234;2023-03-03T06:19:26;101402.69;;;-2.43;100.00
21357;BME280;10836;53.068;18.234;2023-03-03T06:21:53;101393.50;;;-2.49;100.00
21357;BME280;10836;53.068;18.234;2023-03-03T06:24:20;101395.66;;;-2.44;100.00
21357;BME280;10836;53.068;18.234;2023-03-03T06:26:50;101402.50;;;-2.42;100.00
21357;BME280;10836;53.068;18.234;2023-03-03T06:29:17;101405.66;;;-2.38;100.00
21357;BME280;10836;53.068;18.234;2023-03-03T06:31:44;101402.31;;;-2.32;100.00
21357;BME280;10836;53.068;18.234;2023-03-03T06:34:11;101395.97;;;-2.39;100.00
21357;BME280;10836;53.068;18.234;2023-03-03T06:36:38;101411.66;;;-2.28;100.00
21357;BME280;10836;53.068;18.234;2023-03-03T06:39:05;101400.97;;;-2.28;100.00
21357;BME280;10836;53.068;18.234;2023-03-03T06:41:33;101401.63;;;-2.26;100.00
21357;BME280;10836;53.068;18.234;2023-03-03T06:44:00;101407.41;;;-2.14;100.00
21357;BME280;10836;53.068;18.234;2023-03-03T06:46:27;101405.38;;;-2.04;100.00
21357;BME280;10836;53.068;18.234;2023-03-03T06:48:54;101401.53;;;-2.10;100.00
21357;BME280;10836;53.068;18.234;2023-03-03T06:51:29;101404.88;;;-2.08;100.00
21357;BME280;10836;53.068;18.234;2023-03-03T06:53:59;101412.91;;;-2.08;100.00
21357;BME280;10836;53.068;18.234;2023-03-03T06:56:27;101414.22;;;-2.04;100.00
21357;BME280;10836;53.068;18.234;2023-03-03T06:58:57;101437.66;;;-2.06;100.00
21357;BME280;10836;53.068;18.234;2023-03-03T07:01:26;101439.00;;;-2.10;100.00
21357;BME280;10836;53.068;18.234;2023-03-03T07:03:56;101437.63;;;-1.97;100.00
21357;BME280;10836;53.068;18.234;2023-03-03T07:06:25;101444.50;;;-2.03;100.00
21357;BME280;10836;53.068;18.234;2023-03-03T07:08:54;101447.72;;;-2.16;100.00
21357;BME280;10836;53.068;18.234;2023-03-03T07:11:23;101445.72;;;-2.14;100.00
21357;BME280;10836;53.068;18.234;2023-03-03T07:13:52;101448.69;;;-2.09;100.00
21357;BME280;10836;53.068;18.234;2023-03-03T07:16:24;101453.22;;;-2.09;100.00
21357;BME280;10836;53.068;18.234;2023-03-03T07:19:00;101452.38;;;-2.02;100.00
21357;BME280;10836;53.068;18.234;2023-03-03T07:21:35;101462.72;;;-1.98;100.00
21357;BME280;10836;53.068;18.234;2023-03-03T07:24:18;101454.69;;;-1.98;100.00
21357;BME280;10836;53.068;18.234;2023-03-03T07:26:47;101449.84;;;-1.95;100.00
21357;BME280;10836;53.068;18.234;2023-03-03T07:29:27;101454.69;;;-1.98;100.00
21357;BME280;10836;53.068;18.234;2023-03-03T07:31:57;101474.72;;;-1.86;100.00
21357;BME280;10836;53.068;18.234;2023-03-03T07:34:39;101471.03;;;-1.85;100.00
21357;BME280;10836;53.068;18.234;2023-03-03T07:37:16;101475.06;;;-1.89;100.00
21357;BME280;10836;53.068;18.234;2023-03-03T07:39:45;101481.59;;;-1.92;100.00
21357;BME280;10836;53.068;18.234;2023-03-03T07:42:37;101479.59;;;-1.90;100.00
21357;BME280;10836;53.068;18.234;2023-03-03T07:45:31;101473.34;;;-1.74;100.00
21357;BME280;10836;53.068;18.234;2023-03-03T07:50:40;101490.13;;;-1.88;100.00
21357;BME280;10836;53.068;18.234;2023-03-03T07:53:27;101491.44;;;-1.84;100.00
21357;BME280;10836;53.068;18.234;2023-03-03T07:55:55;101487.09;;;-1.85;100.00
21357;BME280;10836;53.068;18.234;2023-03-03T07:58:39;101487.75;;;-1.83;100.00
21357;BME280;10836;53.068;18.234;2023-03-03T08:01:31;101480.72;;;-1.76;100.00
21357;BME280;10836;53.068;18.234;2023-03-03T08:04:00;101482.84;;;-1.72;100.00
21357;BME280;10836;53.068;18.234;2023-03-03T08:11:56;101488.09;;;-1.78;100.00
21357;BME280;10836;53.068;18.234;2023-03-03T08:14:28;101493.56;;;-1.72;100.00
21357;BME280;10836;53.068;18.234;2023-03-03T08:16:57;101491.53;;;-1.70;100.00
21357;BME280;10836;53.068;18.234;2023-03-03T08:19:28;101498.28;;;-1.74;100.00
21357;BME280;10836;53.068;18.234;2023-03-03T08:22:00;101495.09;;;-1.77;100.00
21357;BME280;10836;53.068;18.234;2023-03-03T08:24:29;101493.00;;;-1.59;100.00
21357;BME280;10836;53.068;18.234;2023-03-03T08:26:56;101496.25;;;-1.41;100.00
21357;BME280;10836;53.068;18.234;2023-03-03T08:29:22;101498.50;;;-1.52;100.00
21357;BME280;10836;53.068;18.234;2023-03-03T08:31:49;101498.97;;;-1.49;100.00
21357;BME280;10836;53.068;18.234;2023-03-03T08:34:16;101504.81;;;-1.45;100.00
21357;BME280;10836;53.068;18.234;2023-03-03T08:36:43;101505.31;;;-1.42;100.00
21357;BME280;10836;53.068;18.234;2023-03-03T08:39:10;101502.31;;;-1.47;100.00
21357;BME280;10836;53.068;18.234;2023-03-03T08:41:37;101490.25;;;-1.43;100.00
21357;BME280;10836;53.068;18.234;2023-03-03T08:44:06;101496.97;;;-1.47;100.00
21357;BME280;10836;53.068;18.234;2023-03-03T08:46:33;101484.72;;;-1.41;100.00
21357;BME280;10836;53.068;18.234;2023-03-03T08:49:00;101489.94;;;-1.48;100.00
21357;BME280;10836;53.068;18.234;2023-03-03T08:51:27;101488.53;;;-1.36;100.00
21357;BME280;10836;53.068;18.234;2023-03-03T08:53:54;101495.56;;;-1.35;100.00
21357;BME280;10836;53.068;18.234;2023-03-03T08:56:21;101491.63;;;-1.24;100.00
21357;BME280;10836;53.068;18.234;2023-03-03T08:58:48;101491.03;;;-1.11;100.00
21357;BME280;10836;53.068;18.234;2023-03-03T09:01:29;101494.94;;;-0.91;100.00
21357;BME280;10836;53.068;18.234;2023-03-03T09:03:56;101493.97;;;-0.98;100.00
21357;BME280;10836;53.068;18.234;2023-03-03T09:06:24;101497.25;;;-0.88;100.00
21357;BME280;10836;53.068;18.234;2023-03-03T09:08:50;101501.66;;;-0.95;100.00
21357;BME280;10836;53.068;18.234;2023-03-03T09:11:24;101485.75;;;-0.96;100.00
21357;BME280;10836;53.068;18.234;2023-03-03T09:13:58;101484.78;;;-0.81;100.00
21357;BME280;10836;53.068;18.234;2023-03-03T09:16:34;101486.97;;;-0.61;100.00
21357;BME280;10836;53.068;18.234;2023-03-03T09:19:22;101485.81;;;-0.44;100.00
21357;BME280;10836;53.068;18.234;2023-03-03T09:21:51;101481.25;;;-0.58;100.00
21357;BME280;10836;53.068;18.234;2023-03-03T09:24:26;101478.22;;;-0.41;100.00
21357;BME280;10836;53.068;18.234;2023-03-03T09:26:55;101473.84;;;-0.42;100.00
21357;BME280;10836;53.068;18.234;2023-03-03T09:29:29;101469.25;;;-0.33;100.00
21357;BME280;10836;53.068;18.234;2023-03-03T09:31:58;101461.13;;;-0.25;100.00
21357;BME280;10836;53.068;18.234;2023-03-03T09:34:39;101457.78;;;-0.27;100.00
21357;BME280;10836;53.068;18.234;2023-03-03T09:37:22;101452.97;;;-0.17;100.00
21357;BME280;10836;53.068;18.234;2023-03-03T09:39:54;101452.03;;;0.06;100.00
21357;BME280;10836;53.068;18.234;2023-03-03T10:01:25;101443.69;;;0.66;100.00
21357;BME280;10836;53.068;18.234;2023-03-03T10:04:14;101438.44;;;0.79;100.00
21357;BME280;10836;53.068;18.234;2023-03-03T10:15:17;101431.72;;;0.69;100.00
21357;BME280;10836;53.068;18.234;2023-03-03T10:20:27;101419.38;;;0.74;100.00
21357;BME280;10836;53.068;18.234;2023-03-03T10:23:18;101412.63;;;0.63;100.00
21357;BME280;10836;53.068;18.234;2023-03-03T10:25:54;101419.94;;;0.70;100.00
21357;BME280;10836;53.068;18.234;2023-03-03T10:28:48;101426.09;;;0.85;100.00
21357;BME280;10836;53.068;18.234;2023-03-03T10:45:37;101433.63;;;0.75;100.00
21357;BME280;10836;53.068;18.234;2023-03-03T10:48:14;101423.53;;;0.77;100.00
21357;BME280;10836;53.068;18.234;2023-03-03T10:50:49;101429.84;;;0.90;100.00
21357;BME280;10836;53.068;18.234;2023-03-03T10:59:40;101429.28;;;0.95;100.00
21357;BME280;10836;53.068;18.234;2023-03-03T11:02:23;101426.97;;;0.92;100.00
21357;BME280;10836;53.068;18.234;2023-03-03T11:07:43;101432.97;;;1.15;100.00
21357;BME280;10836;53.068;18.234;2023-03-03T11:12:57;101413.91;;;1.10;100.00
21357;BME280;10836;53.068;18.234;2023-03-03T11:26:08;101399.09;;;0.99;100.00
21357;BME280;10836;53.068;18.234;2023-03-03T11:29:01;101392.91;;;0.99;100.00
21357;BME280;10836;53.068;18.234;2023-03-03T11:31:52;101382.16;;;0.99;100.00
21357;BME280;10836;53.068;18.234;2023-03-03T11:34:47;101394.81;;;1.05;100.00
21357;BME280;10836;53.068;18.234;2023-03-03T11:37:45;101385.34;;;1.09;100.00
21357;BME280;10836;53.068;18.234;2023-03-03T11:40:19;101387.88;;;1.17;100.00
21357;BME280;10836;53.068;18.234;2023-03-03T11:46:12;101389.56;;;1.18;100.00
21357;BME280;10836;53.068;18.234;2023-03-03T11:51:14;101389.81;;;1.02;100.00
21357;BME280;10836;53.068;18.234;2023-03-03T11:56:41;101384.56;;;1.15;100.00
21357;BME280;10836;53.068;18.234;2023-03-03T11:59:33;101379.91;;;1.03;100.00
21357;BME280;10836;53.068;18.234;2023-03-03T12:02:35;101385.41;;;1.16;100.00
21357;BME280;10836;53.068;18.234;2023-03-03T12:05:29;101383.84;;;1.34;100.00
21357;BME280;10836;53.068;18.234;2023-03-03T12:08:13;101390.06;;;1.35;100.00
21357;BME280;10836;53.068;18.234;2023-03-03T12:11:07;101393.28;;;1.17;100.00
21357;BME280;10836;53.068;18.234;2023-03-03T12:16:32;101383.28;;;1.11;100.00
21357;BME280;10836;53.068;18.234;2023-03-03T12:22:24;101380.94;;;1.29;100.00
21357;BME280;10836;53.068;18.234;2023-03-03T12:35:56;101363.81;;;1.09;100.00
21357;BME280;10836;53.068;18.234;2023-03-03T12:38:39;101365.00;;;1.28;100.00
21357;BME280;10836;53.068;18.234;2023-03-03T12:49:54;101365.25;;;1.40;100.00
21357;BME280;10836;53.068;18.234;2023-03-03T12:53:01;101366.63;;;1.57;100.00
21357;BME280;10836;53.068;18.234;2023-03-03T13:01:13;101350.47;;;1.57;100.00
21357;BME280;10836;53.068;18.234;2023-03-03T13:04:04;101349.84;;;1.55;100.00
21357;BME280;10836;53.068;18.234;2023-03-03T13:06:47;101339.75;;;1.63;100.00
21357;BME280;10836;53.068;18.234;2023-03-03T13:12:21;101336.47;;;1.68;100.00
21357;BME280;10836;53.068;18.234;2023-03-03T13:15:21;101335.22;;;1.71;100.00
21357;BME280;10836;53.068;18.234;2023-03-03T13:20:49;101345.28;;;1.55;100.00
21357;BME280;10836;53.068;18.234;2023-03-03T13:26:19;101323.78;;;1.62;100.00
21357;BME280;10836;53.068;18.234;2023-03-03T13:31:50;101323.63;;;1.70;100.00
21357;BME280;10836;53.068;18.234;2023-03-03T13:34:57;101316.19;;;1.72;100.00
21357;BME280;10836;53.068;18.234;2023-03-03T13:37:31;101319.09;;;1.77;100.00
21357;BME280;10836;53.068;18.234;2023-03-03T13:42:44;101314.06;;;1.61;100.00
21357;BME280;10836;53.068;18.234;2023-03-03T13:48:27;101304.41;;;1.86;100.00
21357;BME280;10836;53.068;18.234;2023-03-03T13:54:08;101313.97;;;1.95;100.00
21357;BME280;10836;53.068;18.234;2023-03-03T13:59:34;101307.19;;;2.06;100.00
21357;BME280;10836;53.068;18.234;2023-03-03T14:02:37;101295.41;;;2.14;100.00
21357;BME280;10836;53.068;18.234;2023-03-03T14:05:25;101303.44;;;2.00;100.00
21357;BME280;10836;53.068;18.234;2023-03-03T14:16:21;;;;1.94;
21357;BME280;10836;53.068;18.234;2023-03-03T14:18:58;101296.41;;;2.06;100.00
21357;BME280;10836;53.068;18.234;2023-03-03T14:21:34;101297.63;;;1.97;100.00
21357;BME280;10836;53.068;18.234;2023-03-03T14:24:10;101284.59;;;2.00;100.00
21357;BME280;10836;53.068;18.234;2023-03-03T14:31:55;101278.59;;;2.25;100.00
21357;BME280;10836;53.068;18.234;2023-03-03T14:36:51;101267.00;;;2.31;100.00
21357;BME280;10836;53.068;18.234;2023-03-03T14:39:36;101261.59;;;2.18;100.00
21357;BME280;10836;53.068;18.234;2023-03-03T14:42:11;101256.44;;;2.23;100.00
21357;BME280;10836;53.068;18.234;2023-03-03T14:47:16;101246.06;;;2.07;100.00
21357;BME280;10836;53.068;18.234;2023-03-03T14:49:47;101247.09;;;2.06;100.00
21357;BME280;10836;53.068;18.234;2023-03-03T14:54:47;101250.41;;;2.21;100.00
21357;BME280;10836;53.068;18.234;2023-03-03T14:59:59;101252.03;;;1.95;100.00
21357;BME280;10836;53.068;18.234;2023-03-03T15:02:29;101235.66;;;1.90;100.00
21357;BME280;10836;53.068;18.234;2023-03-03T15:07:38;101245.00;;;2.01;100.00
21357;BME280;10836;53.068;18.234;2023-03-03T15:10:06;101236.91;;;1.94;100.00
21357;BME280;10836;53.068;18.234;2023-03-03T15:12:35;101233.38;;;1.94;100.00
21357;BME280;10836;53.068;18.234;2023-03-03T15:17:42;101227.13;;;1.80;100.00
21357;BME280;10836;53.068;18.234;2023-03-03T15:26:22;101223.47;;;2.08;100.00
21357;BME280;10836;53.068;18.234;2023-03-03T15:42:14;101221.72;;;1.67;100.00
21357;BME280;10836;53.068;18.234;2023-03-03T16:01:55;101198.88;;;1.50;100.00
21357;BME280;10836;53.068;18.234;2023-03-03T16:04:18;101200.88;;;1.34;100.00
21357;BME280;10836;53.068;18.234;2023-03-03T16:06:53;101192.19;;;1.32;100.00
21357;BME280;10836;53.068;18.234;2023-03-03T16:17:58;101200.38;;;1.11;100.00
21357;BME280;10836;53.068;18.234;2023-03-03T16:23:19;101185.91;;;1.12;100.00
21357;BME280;10836;53.068;18.234;2023-03-03T16:25:58;101182.56;;;1.04;100.00
21357;BME280;10836;53.068;18.234;2023-03-03T16:28:37;101185.41;;;0.95;100.00
21357;BME280;10836;53.068;18.234;2023-03-03T16:31:12;101189.47;;;0.78;100.00
21357;BME280;10836;53.068;18.234;2023-03-03T16:33:44;101186.97;;;0.77;100.00
21357;BME280;10836;53.068;18.234;2023-03-03T16:36:28;101189.03;;;0.75;100.00
21357;BME280;10836;53.068;18.234;2023-03-03T16:39:05;101184.03;;;0.72;100.00
21357;BME280;10836;53.068;18.234;2023-03-03T16:51:20;101192.91;;;0.38;100.00
21357;BME280;10836;53.068;18.234;2023-03-03T16:53:56;101188.69;;;0.28;100.00
21357;BME280;10836;53.068;18.234;2023-03-03T16:58:58;101191.56;;;0.27;100.00